sensor_id;sensor_type;location;lat;lon;timestamp;P1;durP1;ratioP1;P2;durP2;ratioP2
40955;SDS011;26687;48.254;11.454;2023-04-21T00:01:35;14.40;;;13.10;;
40955;SDS011;26687;48.254;11.454;2023-04-21T00:04:35;15.60;;;13.27;;
40955;SDS011;26687;48.254;11.454;2023-04-21T00:07:35;14.63;;;13.27;;
40955;SDS011;26687;48.254;11.454;2023-04-21T00:10:39;15.23;;;13.82;;
40955;SDS011;26687;48.254;11.454;2023-04-21T00:13:39;14.18;;;12.85;;
40955;SDS011;26687;48.254;11.454;2023-04-21T00:16:39;15.40;;;14.00;;
40955;SDS011;26687;48.254;11.454;2023-04-21T00:19:39;14.32;;;13.02;;
40955;SDS011;26687;48.254;11.454;2023-04-21T00:22:40;14.32;;;13.13;;
40955;SDS011;26687;48.254;11.454;2023-04-21T00:25:40;14.47;;;13.07;;
40955;SDS011;26687;48.254;11.454;2023-04-21T00:28:40;15.03;;;13.53;;
40955;SDS011;26687;48.254;11.454;2023-04-21T00:31:40;14.13;;;12.93;;
40955;SDS011;26687;48.254;11.454;2023-04-21T00:34:40;14.50;;;13.20;;
40955;SDS011;26687;48.254;11.454;2023-04-21T00:37:41;14.93;;;13.53;;
40955;SDS011;26687;48.254;11.454;2023-04-21T00:40:41;14.87;;;13.47;;
40955;SDS011;26687;48.254;11.454;2023-04-21T00:44:03;14.07;;;12.77;;
40955;SDS011;26687;48.254;11.454;2023-04-21T00:47:01;15.27;;;13.98;;
40955;SDS011;26687;48.254;11.454;2023-04-21T00:50:02;15.68;;;14.07;;
40955;SDS011;26687;48.254;11.454;2023-04-21T00:53:03;14.38;;;13.07;;
40955;SDS011;26687;48.254;11.454;2023-04-21T00:56:03;14.47;;;13.20;;
40955;SDS011;26687;48.254;11.454;2023-04-21T00:59:03;15.43;;;14.07;;
40955;SDS011;26687;48.254;11.454;2023-04-21T01:02:03;14.57;;;13.27;;
40955;SDS011;26687;48.254;11.454;2023-04-21T01:05:04;14.45;;;13.05;;
40955;SDS011;26687;48.254;11.454;2023-04-21T01:08:06;14.70;;;13.30;;
40955;SDS011;26687;48.254;11.454;2023-04-21T01:11:10;14.90;;;13.13;;
40955;SDS011;26687;48.254;11.454;2023-04-21T01:14:11;14.63;;;13.35;;
40955;SDS011;26687;48.254;11.454;2023-04-21T01:17:11;14.02;;;12.82;;
40955;SDS011;26687;48.254;11.454;2023-04-21T01:20:12;15.20;;;13.80;;
40955;SDS011;26687;48.254;11.454;2023-04-21T01:23:12;15.35;;;13.95;;
40955;SDS011;26687;48.254;11.454;2023-04-21T01:26:12;15.60;;;14.10;;
40955;SDS011;26687;48.254;11.454;2023-04-21T01:29:16;15.10;;;13.63;;
40955;SDS011;26687;48.254;11.454;2023-04-21T01:32:17;14.88;;;13.43;;
40955;SDS011;26687;48.254;11.454;2023-04-21T01:35:18;15.25;;;13.80;;
40955;SDS011;26687;48.254;11.454;2023-04-21T01:38:19;15.75;;;14.32;;
40955;SDS011;26687;48.254;11.454;2023-04-21T01:41:19;14.85;;;13.55;;
40955;SDS011;26687;48.254;11.454;2023-04-21T01:44:20;15.43;;;14.03;;
40955;SDS011;26687;48.254;11.454;2023-04-21T01:47:20;14.27;;;13.07;;
40955;SDS011;26687;48.254;11.454;2023-04-21T01:50:20;15.77;;;14.40;;
40955;SDS011;26687;48.254;11.454;2023-04-21T01:53:21;15.63;;;14.23;;
40955;SDS011;26687;48.254;11.454;2023-04-21T01:56:21;15.13;;;13.77;;
40955;SDS011;26687;48.254;11.454;2023-04-21T01:59:21;15.83;;;14.43;;
40955;SDS011;26687;48.254;11.454;2023-04-21T02:02:21;16.03;;;14.63;;
40955;SDS011;26687;48.254;11.454;2023-04-21T02:05:22;15.70;;;14.30;;
40955;SDS011;26687;48.254;11.454;2023-04-21T02:08:22;15.27;;;13.93;;
40955;SDS011;26687;48.254;11.454;2023-04-21T02:11:22;15.52;;;14.13;;
40955;SDS011;26687;48.254;11.454;2023-04-21T02:14:24;14.80;;;13.50;;
40955;SDS011;26687;48.254;11.454;2023-04-21T02:17:24;15.85;;;14.45;;
40955;SDS011;26687;48.254;11.454;2023-04-21T02:20:25;16.05;;;14.45;;
40955;SDS011;26687;48.254;11.454;2023-04-21T02:23:25;16.53;;;14.90;;
40955;SDS011;26687;48.254;11.454;2023-04-21T02:26:25;15.40;;;14.00;;
40955;SDS011;26687;48.254;11.454;2023-04-21T02:29:25;16.57;;;15.07;;
40955;SDS011;26687;48.254;11.454;2023-04-21T02:32:26;16.23;;;14.82;;
40955;SDS011;26687;48.254;11.454;2023-04-21T02:35:26;15.50;;;14.10;;
40955;SDS011;26687;48.254;11.454;2023-04-21T02:38:26;16.37;;;14.87;;
40955;SDS011;26687;48.254;11.454;2023-04-21T02:41:26;16.02;;;14.52;;
40955;SDS011;26687;48.254;11.454;2023-04-21T02:44:26;15.65;;;14.25;;
40955;SDS011;26687;48.254;11.454;2023-04-21T02:47:27;14.77;;;13.47;;
40955;SDS011;26687;48.254;11.454;2023-04-21T02:50:27;14.70;;;13.40;;
40955;SDS011;26687;48.254;11.454;2023-04-21T02:53:27;16.35;;;14.75;;
40955;SDS011;26687;48.254;11.454;2023-04-21T02:56:27;15.77;;;14.27;;
40955;SDS011;26687;48.254;11.454;2023-04-21T02:59:27;15.43;;;14.03;;
40955;SDS011;26687;48.254;11.454;2023-04-21T03:02:28;15.98;;;14.57;;
40955;SDS011;26687;48.254;11.454;2023-04-21T03:05:28;14.88;;;13.55;;
40955;SDS011;26687;48.254;11.454;2023-04-21T03:08:28;16.50;;;15.00;;
40955;SDS011;26687;48.254;11.454;2023-04-21T03:11:29;15.27;;;13.80;;
40955;SDS011;26687;48.254;11.454;2023-04-21T03:14:29;16.50;;;14.90;;
40955;SDS011;26687;48.254;11.454;2023-04-21T03:17:29;15.97;;;14.47;;
40955;SDS011;26687;48.254;11.454;2023-04-21T03:20:29;16.80;;;15.30;;
40955;SDS011;26687;48.254;11.454;2023-04-21T03:23:29;16.52;;;14.73;;
40955;SDS011;26687;48.254;11.454;2023-04-21T03:26:30;16.17;;;14.67;;
40955;SDS011;26687;48.254;11.454;2023-04-21T03:29:30;15.57;;;14.07;;
40955;SDS011;26687;48.254;11.454;2023-04-21T03:32:30;16.17;;;14.77;;
40955;SDS011;26687;48.254;11.454;2023-04-21T03:35:30;16.20;;;14.70;;
40955;SDS011;26687;48.254;11.454;2023-04-21T03:38:31;15.68;;;14.18;;
40955;SDS011;26687;48.254;11.454;2023-04-21T03:41:33;16.27;;;14.68;;
40955;SDS011;26687;48.254;11.454;2023-04-21T03:44:34;15.60;;;14.10;;
40955;SDS011;26687;48.254;11.454;2023-04-21T03:47:34;15.27;;;13.88;;
40955;SDS011;26687;48.254;11.454;2023-04-21T03:50:34;15.88;;;14.40;;
40955;SDS011;26687;48.254;11.454;2023-04-21T03:53:34;15.70;;;14.25;;
40955;SDS011;26687;48.254;11.454;2023-04-21T03:56:34;15.57;;;14.23;;
40955;SDS011;26687;48.254;11.454;2023-04-21T03:59:35;14.83;;;13.53;;
40955;SDS011;26687;48.254;11.454;2023-04-21T04:02:35;15.32;;;13.93;;
40955;SDS011;26687;48.254;11.454;2023-04-21T04:05:35;15.27;;;13.98;;
40955;SDS011;26687;48.254;11.454;2023-04-21T04:08:36;15.27;;;13.87;;
40955;SDS011;26687;48.254;11.454;2023-04-21T04:11:36;16.45;;;14.88;;
40955;SDS011;26687;48.254;11.454;2023-04-21T04:14:36;15.05;;;13.63;;
40955;SDS011;26687;48.254;11.454;2023-04-21T04:17:36;16.15;;;14.65;;
40955;SDS011;26687;48.254;11.454;2023-04-21T04:20:36;16.83;;;15.32;;
40955;SDS011;26687;48.254;11.454;2023-04-21T04:23:37;15.18;;;13.77;;
40955;SDS011;26687;48.254;11.454;2023-04-21T04:26:37;15.93;;;14.32;;
40955;SDS011;26687;48.254;11.454;2023-04-21T04:29:37;15.63;;;14.23;;
40955;SDS011;26687;48.254;11.454;2023-04-21T04:32:38;15.95;;;14.50;;
40955;SDS011;26687;48.254;11.454;2023-04-21T04:35:38;15.77;;;14.35;;
40955;SDS011;26687;48.254;11.454;2023-04-21T04:38:38;15.93;;;14.50;;
40955;SDS011;26687;48.254;11.454;2023-04-21T04:41:39;17.85;;;16.25;;
40955;SDS011;26687;48.254;11.454;2023-04-21T04:44:40;16.42;;;14.93;;
40955;SDS011;26687;48.254;11.454;2023-04-21T04:47:40;16.10;;;14.70;;
40955;SDS011;26687;48.254;11.454;2023-04-21T04:50:40;17.23;;;15.52;;
40955;SDS011;26687;48.254;11.454;2023-04-21T04:53:41;17.33;;;15.73;;
40955;SDS011;26687;48.254;11.454;2023-04-21T04:56:41;17.27;;;15.68;;
40955;SDS011;26687;48.254;11.454;2023-04-21T04:59:41;17.90;;;16.10;;
40955;SDS011;26687;48.254;11.454;2023-04-21T05:02:41;16.80;;;15.32;;
40955;SDS011;26687;48.254;11.454;2023-04-21T05:05:42;17.47;;;15.77;;
40955;SDS011;26687;48.254;11.454;2023-04-21T05:08:42;16.20;;;14.80;;
40955;SDS011;26687;48.254;11.454;2023-04-21T05:11:42;16.80;;;15.30;;
40955;SDS011;26687;48.254;11.454;2023-04-21T05:14:42;17.57;;;15.87;;
40955;SDS011;26687;48.254;11.454;2023-04-21T05:17:42;17.80;;;16.10;;
40955;SDS011;26687;48.254;11.454;2023-04-21T05:20:42;19.30;;;17.40;;
40955;SDS011;26687;48.254;11.454;2023-04-21T05:23:43;17.85;;;16.20;;
40955;SDS011;26687;48.254;11.454;2023-04-21T05:26:43;17.55;;;16.10;;
40955;SDS011;26687;48.254;11.454;2023-04-21T05:29:43;18.27;;;16.67;;
40955;SDS011;26687;48.254;11.454;2023-04-21T05:32:43;16.20;;;14.60;;
40955;SDS011;26687;48.254;11.454;2023-04-21T05:35:43;18.05;;;16.35;;
40955;SDS011;26687;48.254;11.454;2023-04-21T05:38:44;17.77;;;16.13;;
40955;SDS011;26687;48.254;11.454;2023-04-21T05:41:44;18.00;;;16.30;;
40955;SDS011;26687;48.254;11.454;2023-04-21T05:44:44;17.70;;;16.17;;
40955;SDS011;26687;48.254;11.454;2023-04-21T05:47:44;18.33;;;16.52;;
40955;SDS011;26687;48.254;11.454;2023-04-21T05:50:45;17.60;;;15.90;;
40955;SDS011;26687;48.254;11.454;2023-04-21T05:53:45;18.90;;;17.20;;
40955;SDS011;26687;48.254;11.454;2023-04-21T05:56:45;17.73;;;16.03;;
40955;SDS011;26687;48.254;11.454;2023-04-21T05:59:47;19.02;;;17.33;;
40955;SDS011;26687;48.254;11.454;2023-04-21T06:02:47;18.58;;;16.77;;
40955;SDS011;26687;48.254;11.454;2023-04-21T06:05:52;17.95;;;16.27;;
40955;SDS011;26687;48.254;11.454;2023-04-21T06:08:53;18.38;;;16.67;;
40955;SDS011;26687;48.254;11.454;2023-04-21T06:11:53;19.23;;;17.43;;
40955;SDS011;26687;48.254;11.454;2023-04-21T06:14:53;18.00;;;16.40;;
40955;SDS011;26687;48.254;11.454;2023-04-21T06:17:56;17.20;;;15.60;;
40955;SDS011;26687;48.254;11.454;2023-04-21T06:20:56;17.60;;;16.10;;
40955;SDS011;26687;48.254;11.454;2023-04-21T06:23:56;18.02;;;16.35;;
40955;SDS011;26687;48.254;11.454;2023-04-21T06:26:57;18.48;;;16.85;;
40955;SDS011;26687;48.254;11.454;2023-04-21T06:29:57;20.25;;;18.25;;
40955;SDS011;26687;48.254;11.454;2023-04-21T06:32:57;19.10;;;17.30;;
40955;SDS011;26687;48.254;11.454;2023-04-21T06:35:57;18.40;;;16.70;;
40955;SDS011;26687;48.254;11.454;2023-04-21T06:38:58;19.23;;;17.40;;
40955;SDS011;26687;48.254;11.454;2023-04-21T06:41:58;19.33;;;17.30;;
40955;SDS011;26687;48.254;11.454;2023-04-21T06:44:58;18.73;;;17.03;;
40955;SDS011;26687;48.254;11.454;2023-04-21T06:47:58;18.95;;;17.25;;
40955;SDS011;26687;48.254;11.454;2023-04-21T06:50:59;20.77;;;18.73;;
40955;SDS011;26687;48.254;11.454;2023-04-21T06:54:00;18.67;;;16.88;;
40955;SDS011;26687;48.254;11.454;2023-04-21T06:57:00;19.40;;;17.42;;
40955;SDS011;26687;48.254;11.454;2023-04-21T07:00:01;18.63;;;16.83;;
40955;SDS011;26687;48.254;11.454;2023-04-21T07:03:01;19.10;;;17.30;;
40955;SDS011;26687;48.254;11.454;2023-04-21T07:06:01;18.42;;;16.63;;
40955;SDS011;26687;48.254;11.454;2023-04-21T07:09:02;18.98;;;17.10;;
40955;SDS011;26687;48.254;11.454;2023-04-21T07:12:02;18.30;;;16.60;;
40955;SDS011;26687;48.254;11.454;2023-04-21T07:15:02;19.70;;;17.80;;
40955;SDS011;26687;48.254;11.454;2023-04-21T07:18:02;19.67;;;17.73;;
40955;SDS011;26687;48.254;11.454;2023-04-21T07:21:03;19.17;;;17.30;;
40955;SDS011;26687;48.254;11.454;2023-04-21T07:24:03;19.40;;;17.60;;
40955;SDS011;26687;48.254;11.454;2023-04-21T07:27:04;18.48;;;16.65;;
40955;SDS011;26687;48.254;11.454;2023-04-21T07:30:05;16.80;;;15.13;;
40955;SDS011;26687;48.254;11.454;2023-04-21T07:33:05;18.00;;;16.30;;
40955;SDS011;26687;48.254;11.454;2023-04-21T07:36:05;19.40;;;17.50;;
40955;SDS011;26687;48.254;11.454;2023-04-21T07:39:05;19.48;;;17.65;;
40955;SDS011;26687;48.254;11.454;2023-04-21T07:42:06;19.08;;;17.23;;
40955;SDS011;26687;48.254;11.454;2023-04-21T07:45:07;17.25;;;15.65;;
40955;SDS011;26687;48.254;11.454;2023-04-21T07:48:07;17.85;;;16.15;;
40955;SDS011;26687;48.254;11.454;2023-04-21T07:51:07;17.10;;;15.50;;
40955;SDS011;26687;48.254;11.454;2023-04-21T07:54:08;16.43;;;14.93;;
40955;SDS011;26687;48.254;11.454;2023-04-21T07:57:08;16.20;;;14.70;;
40955;SDS011;26687;48.254;11.454;2023-04-21T08:00:08;18.38;;;16.67;;
40955;SDS011;26687;48.254;11.454;2023-04-21T08:03:09;19.63;;;17.63;;
40955;SDS011;26687;48.254;11.454;2023-04-21T08:06:09;17.02;;;15.48;;
40955;SDS011;26687;48.254;11.454;2023-04-21T08:09:09;16.17;;;14.68;;
40955;SDS011;26687;48.254;11.454;2023-04-21T08:12:09;15.70;;;14.25;;
40955;SDS011;26687;48.254;11.454;2023-04-21T08:15:10;17.85;;;16.15;;
40955;SDS011;26687;48.254;11.454;2023-04-21T08:18:11;16.95;;;15.30;;
40955;SDS011;26687;48.254;11.454;2023-04-21T08:21:11;15.77;;;14.27;;
40955;SDS011;26687;48.254;11.454;2023-04-21T08:24:12;16.30;;;14.80;;
40955;SDS011;26687;48.254;11.454;2023-04-21T08:27:12;15.70;;;14.10;;
40955;SDS011;26687;48.254;11.454;2023-04-21T08:30:13;15.80;;;14.30;;
40955;SDS011;26687;48.254;11.454;2023-04-21T08:33:13;15.98;;;14.57;;
40955;SDS011;26687;48.254;11.454;2023-04-21T08:36:13;15.73;;;14.33;;
40955;SDS011;26687;48.254;11.454;2023-04-21T08:39:13;15.15;;;13.82;;
40955;SDS011;26687;48.254;11.454;2023-04-21T08:42:14;15.63;;;14.13;;
40955;SDS011;26687;48.254;11.454;2023-04-21T08:45:15;16.73;;;14.70;;
40955;SDS011;26687;48.254;11.454;2023-04-21T08:48:15;16.73;;;15.18;;
40955;SDS011;26687;48.254;11.454;2023-04-21T08:51:21;16.00;;;14.40;;
40955;SDS011;26687;48.254;11.454;2023-04-21T08:54:22;15.80;;;14.25;;
40955;SDS011;26687;48.254;11.454;2023-04-21T08:57:22;15.25;;;13.75;;
40955;SDS011;26687;48.254;11.454;2023-04-21T09:00:22;15.13;;;13.83;;
40955;SDS011;26687;48.254;11.454;2023-04-21T09:03:23;13.38;;;12.07;;
40955;SDS011;26687;48.254;11.454;2023-04-21T09:06:23;13.52;;;12.25;;
40955;SDS011;26687;48.254;11.454;2023-04-21T09:09:23;13.35;;;12.15;;
40955;SDS011;26687;48.254;11.454;2023-04-21T09:12:23;14.10;;;12.88;;
40955;SDS011;26687;48.254;11.454;2023-04-21T09:15:24;14.17;;;12.87;;
40955;SDS011;26687;48.254;11.454;2023-04-21T09:18:25;13.33;;;12.13;;
40955;SDS011;26687;48.254;11.454;2023-04-21T09:21:29;13.25;;;12.05;;
40955;SDS011;26687;48.254;11.454;2023-04-21T09:24:30;12.23;;;10.95;;
40955;SDS011;26687;48.254;11.454;2023-04-21T09:27:31;12.07;;;10.97;;
40955;SDS011;26687;48.254;11.454;2023-04-21T09:30:31;12.55;;;11.35;;
40955;SDS011;26687;48.254;11.454;2023-04-21T09:33:33;12.47;;;11.47;;
40955;SDS011;26687;48.254;11.454;2023-04-21T09:36:34;14.05;;;12.85;;
40955;SDS011;26687;48.254;11.454;2023-04-21T09:39:34;14.70;;;13.38;;
40955;SDS011;26687;48.254;11.454;2023-04-21T09:42:34;14.50;;;13.20;;
40955;SDS011;26687;48.254;11.454;2023-04-21T09:45:34;15.30;;;13.73;;
40955;SDS011;26687;48.254;11.454;2023-04-21T09:48:35;15.43;;;13.90;;
40955;SDS011;26687;48.254;11.454;2023-04-21T09:51:35;14.90;;;13.55;;
40955;SDS011;26687;48.254;11.454;2023-04-21T09:54:36;11.88;;;10.80;;
40955;SDS011;26687;48.254;11.454;2023-04-21T09:57:39;12.80;;;11.73;;
40955;SDS011;26687;48.254;11.454;2023-04-21T10:00:40;11.65;;;10.63;;
40955;SDS011;26687;48.254;11.454;2023-04-21T10:03:42;12.48;;;11.38;;
40955;SDS011;26687;48.254;11.454;2023-04-21T10:06:42;12.35;;;11.25;;
40955;SDS011;26687;48.254;11.454;2023-04-21T10:09:55;11.05;;;10.05;;
40955;SDS011;26687;48.254;11.454;2023-04-21T10:12:55;12.00;;;10.95;;
40955;SDS011;26687;48.254;11.454;2023-04-21T10:16:05;11.10;;;10.03;;
40955;SDS011;26687;48.254;11.454;2023-04-21T10:19:21;11.63;;;10.63;;
40955;SDS011;26687;48.254;11.454;2023-04-21T10:22:28;10.38;;;9.48;;
40955;SDS011;26687;48.254;11.454;2023-04-21T10:25:29;11.18;;;10.10;;
40955;SDS011;26687;48.254;11.454;2023-04-21T10:28:39;13.20;;;12.10;;
40955;SDS011;26687;48.254;11.454;2023-04-21T10:34:42;14.75;;;13.45;;
40955;SDS011;26687;48.254;11.454;2023-04-21T10:37:43;15.85;;;14.30;;
40955;SDS011;26687;48.254;11.454;2023-04-21T10:40:46;75.45;;;17.73;;
40955;SDS011;26687;48.254;11.454;2023-04-21T10:43:47;15.07;;;13.67;;
40955;SDS011;26687;48.254;11.454;2023-04-21T10:46:50;19.98;;;14.20;;
40955;SDS011;26687;48.254;11.454;2023-04-21T10:49:51;10.38;;;9.43;;
40955;SDS011;26687;48.254;11.454;2023-04-21T10:52:58;54.60;;;16.17;;
40955;SDS011;26687;48.254;11.454;2023-04-21T10:56:06;2.88;;;2.28;;
40955;SDS011;26687;48.254;11.454;2023-04-21T10:59:06;14.43;;;13.13;;
40955;SDS011;26687;48.254;11.454;2023-04-21T11:02:07;12.73;;;11.50;;
40955;SDS011;26687;48.254;11.454;2023-04-21T11:05:08;13.38;;;12.27;;
40955;SDS011;26687;48.254;11.454;2023-04-21T11:08:12;13.80;;;12.32;;
40955;SDS011;26687;48.254;11.454;2023-04-21T11:11:14;6.95;;;6.35;;
40955;SDS011;26687;48.254;11.454;2023-04-21T11:14:20;10.75;;;9.60;;
40955;SDS011;26687;48.254;11.454;2023-04-21T11:17:20;5.90;;;5.27;;
40955;SDS011;26687;48.254;11.454;2023-04-21T11:20:22;12.82;;;11.77;;
40955;SDS011;26687;48.254;11.454;2023-04-21T11:23:22;13.47;;;12.27;;
40955;SDS011;26687;48.254;11.454;2023-04-21T11:26:33;12.60;;;11.50;;
40955;SDS011;26687;48.254;11.454;2023-04-21T11:29:33;3.72;;;3.00;;
40955;SDS011;26687;48.254;11.454;2023-04-21T11:32:34;12.00;;;10.88;;
40955;SDS011;26687;48.254;11.454;2023-04-21T11:35:34;12.48;;;11.20;;
40955;SDS011;26687;48.254;11.454;2023-04-21T11:38:39;11.73;;;10.50;;
40955;SDS011;26687;48.254;11.454;2023-04-21T11:41:41;10.88;;;9.98;;
40955;SDS011;26687;48.254;11.454;2023-04-21T11:44:41;5.07;;;2.85;;
40955;SDS011;26687;48.254;11.454;2023-04-21T11:47:42;4.50;;;3.50;;
40955;SDS011;26687;48.254;11.454;2023-04-21T11:50:46;6.43;;;2.15;;
40955;SDS011;26687;48.254;11.454;2023-04-21T11:53:46;6.22;;;4.18;;
40955;SDS011;26687;48.254;11.454;2023-04-21T11:56:47;12.48;;;11.48;;
40955;SDS011;26687;48.254;11.454;2023-04-21T11:59:47;8.18;;;6.50;;
40955;SDS011;26687;48.254;11.454;2023-04-21T12:02:56;7.35;;;5.32;;
40955;SDS011;26687;48.254;11.454;2023-04-21T12:05:56;10.95;;;9.95;;
40955;SDS011;26687;48.254;11.454;2023-04-21T12:09:01;8.65;;;4.03;;
40955;SDS011;26687;48.254;11.454;2023-04-21T12:12:02;11.20;;;10.20;;
40955;SDS011;26687;48.254;11.454;2023-04-21T12:15:07;10.05;;;5.55;;
40955;SDS011;26687;48.254;11.454;2023-04-21T12:18:11;8.73;;;7.45;;
40955;SDS011;26687;48.254;11.454;2023-04-21T12:21:13;8.45;;;7.68;;
40955;SDS011;26687;48.254;11.454;2023-04-21T12:24:13;10.50;;;9.50;;
40955;SDS011;26687;48.254;11.454;2023-04-21T12:27:14;9.70;;;8.75;;
40955;SDS011;26687;48.254;11.454;2023-04-21T12:30:14;11.10;;;6.27;;
40955;SDS011;26687;48.254;11.454;2023-04-21T12:33:14;7.13;;;3.38;;
40955;SDS011;26687;48.254;11.454;2023-04-21T12:36:15;8.30;;;3.93;;
40955;SDS011;26687;48.254;11.454;2023-04-21T12:39:15;8.43;;;7.63;;
40955;SDS011;26687;48.254;11.454;2023-04-21T12:42:17;5.82;;;2.83;;
40955;SDS011;26687;48.254;11.454;2023-04-21T12:45:17;9.07;;;5.97;;
40955;SDS011;26687;48.254;11.454;2023-04-21T12:48:18;10.05;;;9.18;;
40955;SDS011;26687;48.254;11.454;2023-04-21T12:51:19;8.10;;;7.40;;
40955;SDS011;26687;48.254;11.454;2023-04-21T12:54:19;10.32;;;5.38;;
40955;SDS011;26687;48.254;11.454;2023-04-21T12:57:19;9.02;;;3.35;;
40955;SDS011;26687;48.254;11.454;2023-04-21T13:00:20;10.20;;;4.47;;
40955;SDS011;26687;48.254;11.454;2023-04-21T13:03:20;5.75;;;4.70;;
40955;SDS011;26687;48.254;11.454;2023-04-21T13:06:21;6.05;;;3.85;;
40955;SDS011;26687;48.254;11.454;2023-04-21T13:09:21;7.38;;;3.90;;
40955;SDS011;26687;48.254;11.454;2023-04-21T13:12:21;5.30;;;4.80;;
40955;SDS011;26687;48.254;11.454;2023-04-21T13:15:21;5.90;;;3.80;;
40955;SDS011;26687;48.254;11.454;2023-04-21T13:18:21;4.18;;;3.30;;
40955;SDS011;26687;48.254;11.454;2023-04-21T13:21:21;3.03;;;2.47;;
40955;SDS011;26687;48.254;11.454;2023-04-21T13:24:22;2.63;;;1.77;;
40955;SDS011;26687;48.254;11.454;2023-04-21T13:27:22;2.83;;;2.63;;
40955;SDS011;26687;48.254;11.454;2023-04-21T13:30:22;4.07;;;3.13;;
40955;SDS011;26687;48.254;11.454;2023-04-21T13:33:22;3.30;;;3.00;;
40955;SDS011;26687;48.254;11.454;2023-04-21T13:36:23;2.97;;;2.00;;
40955;SDS011;26687;48.254;11.454;2023-04-21T13:39:23;5.53;;;3.07;;
40955;SDS011;26687;48.254;11.454;2023-04-21T13:42:23;5.30;;;2.90;;
40955;SDS011;26687;48.254;11.454;2023-04-21T13:45:23;3.88;;;3.40;;
40955;SDS011;26687;48.254;11.454;2023-04-21T13:48:24;4.47;;;4.18;;
40955;SDS011;26687;48.254;11.454;2023-04-21T13:51:25;4.00;;;3.22;;
40955;SDS011;26687;48.254;11.454;2023-04-21T13:54:25;5.50;;;3.23;;
40955;SDS011;26687;48.254;11.454;2023-04-21T13:57:25;7.13;;;3.37;;
40955;SDS011;26687;48.254;11.454;2023-04-21T14:00:27;4.80;;;4.43;;
40955;SDS011;26687;48.254;11.454;2023-04-21T14:03:27;4.23;;;3.83;;
40955;SDS011;26687;48.254;11.454;2023-04-21T14:06:28;5.57;;;4.30;;
40955;SDS011;26687;48.254;11.454;2023-04-21T14:09:28;5.73;;;3.37;;
40955;SDS011;26687;48.254;11.454;2023-04-21T14:12:28;4.70;;;4.30;;
40955;SDS011;26687;48.254;11.454;2023-04-21T14:15:28;7.28;;;3.33;;
40955;SDS011;26687;48.254;11.454;2023-04-21T14:18:29;4.25;;;3.72;;
40955;SDS011;26687;48.254;11.454;2023-04-21T14:21:29;3.47;;;2.93;;
40955;SDS011;26687;48.254;11.454;2023-04-21T14:24:30;5.22;;;4.65;;
40955;SDS011;26687;48.254;11.454;2023-04-21T14:27:31;4.75;;;4.35;;
40955;SDS011;26687;48.254;11.454;2023-04-21T14:30:31;4.80;;;4.40;;
40955;SDS011;26687;48.254;11.454;2023-04-21T14:33:32;4.35;;;3.95;;
40955;SDS011;26687;48.254;11.454;2023-04-21T14:36:32;4.30;;;4.00;;
40955;SDS011;26687;48.254;11.454;2023-04-21T14:39:32;4.40;;;4.10;;
40955;SDS011;26687;48.254;11.454;2023-04-21T14:42:32;6.03;;;2.60;;
40955;SDS011;26687;48.254;11.454;2023-04-21T14:45:33;3.63;;;2.60;;
40955;SDS011;26687;48.254;11.454;2023-04-21T14:48:33;2.20;;;2.00;;
40955;SDS011;26687;48.254;11.454;2023-04-21T14:51:33;1.80;;;1.70;;
40955;SDS011;26687;48.254;11.454;2023-04-21T14:54:33;1.70;;;1.60;;
40955;SDS011;26687;48.254;11.454;2023-04-21T14:57:34;1.40;;;1.30;;
40955;SDS011;26687;48.254;11.454;2023-04-21T15:00:34;2.00;;;1.60;;
40955;SDS011;26687;48.254;11.454;2023-04-21T15:03:35;2.42;;;1.63;;
40955;SDS011;26687;48.254;11.454;2023-04-21T15:06:36;1.33;;;1.23;;
40955;SDS011;26687;48.254;11.454;2023-04-21T15:09:36;2.17;;;1.93;;
40955;SDS011;26687;48.254;11.454;2023-04-21T15:12:38;1.73;;;1.58;;
40955;SDS011;26687;48.254;11.454;2023-04-21T15:15:38;3.90;;;2.55;;
40955;SDS011;26687;48.254;11.454;2023-04-21T15:18:39;2.05;;;1.95;;
40955;SDS011;26687;48.254;11.454;2023-04-21T15:21:40;2.60;;;1.92;;
40955;SDS011;26687;48.254;11.454;2023-04-21T15:24:40;2.83;;;1.80;;
40955;SDS011;26687;48.254;11.454;2023-04-21T15:27:40;4.03;;;2.20;;
40955;SDS011;26687;48.254;11.454;2023-04-21T15:30:40;2.00;;;1.80;;
40955;SDS011;26687;48.254;11.454;2023-04-21T15:33:40;7.13;;;3.17;;
40955;SDS011;26687;48.254;11.454;2023-04-21T15:36:40;5.53;;;2.60;;
40955;SDS011;26687;48.254;11.454;2023-04-21T15:39:41;3.35;;;2.20;;
40955;SDS011;26687;48.254;11.454;2023-04-21T15:42:41;1.73;;;1.63;;
40955;SDS011;26687;48.254;11.454;2023-04-21T15:45:41;3.88;;;2.25;;
40955;SDS011;26687;48.254;11.454;2023-04-21T15:48:42;1.33;;;1.23;;
40955;SDS011;26687;48.254;11.454;2023-04-21T15:51:42;1.73;;;1.50;;
40955;SDS011;26687;48.254;11.454;2023-04-21T15:54:42;2.73;;;1.70;;
40955;SDS011;26687;48.254;11.454;2023-04-21T15:57:44;5.70;;;3.25;;
40955;SDS011;26687;48.254;11.454;2023-04-21T16:00:44;5.40;;;2.50;;
40955;SDS011;26687;48.254;11.454;2023-04-21T16:03:45;6.28;;;3.00;;
40955;SDS011;26687;48.254;11.454;2023-04-21T16:06:46;1.75;;;1.40;;
40955;SDS011;26687;48.254;11.454;2023-04-21T16:09:46;1.73;;;1.43;;
40955;SDS011;26687;48.254;11.454;2023-04-21T16:12:46;2.67;;;2.05;;
40955;SDS011;26687;48.254;11.454;2023-04-21T16:15:50;2.17;;;1.90;;
40955;SDS011;26687;48.254;11.454;2023-04-21T16:18:50;2.20;;;1.95;;
40955;SDS011;26687;48.254;11.454;2023-04-21T16:21:50;2.97;;;2.00;;
40955;SDS011;26687;48.254;11.454;2023-04-21T16:24:50;6.77;;;3.10;;
40955;SDS011;26687;48.254;11.454;2023-04-21T16:27:52;8.15;;;3.83;;
40955;SDS011;26687;48.254;11.454;2023-04-21T16:30:52;4.95;;;1.75;;
40955;SDS011;26687;48.254;11.454;2023-04-21T16:33:52;5.33;;;2.70;;
40955;SDS011;26687;48.254;11.454;2023-04-21T16:36:58;3.03;;;2.15;;
40955;SDS011;26687;48.254;11.454;2023-04-21T16:39:58;3.27;;;2.03;;
40955;SDS011;26687;48.254;11.454;2023-04-21T16:42:58;1.93;;;1.27;;
40955;SDS011;26687;48.254;11.454;2023-04-21T16:45:58;1.53;;;1.43;;
40955;SDS011;26687;48.254;11.454;2023-04-21T16:48:59;3.27;;;1.60;;
40955;SDS011;26687;48.254;11.454;2023-04-21T16:51:59;2.40;;;1.55;;
40955;SDS011;26687;48.254;11.454;2023-04-21T16:54:59;4.75;;;2.00;;
40955;SDS011;26687;48.254;11.454;2023-04-21T16:57:59;1.65;;;1.55;;
40955;SDS011;26687;48.254;11.454;2023-04-21T17:01:00;1.88;;;1.65;;
40955;SDS011;26687;48.254;11.454;2023-04-21T17:04:00;2.10;;;1.90;;
40955;SDS011;26687;48.254;11.454;2023-04-21T17:07:00;2.80;;;1.83;;
40955;SDS011;26687;48.254;11.454;2023-04-21T17:10:01;1.70;;;1.50;;
40955;SDS011;26687;48.254;11.454;2023-04-21T17:13:01;3.93;;;2.47;;
40955;SDS011;26687;48.254;11.454;2023-04-21T17:16:02;1.55;;;1.45;;
40955;SDS011;26687;48.254;11.454;2023-04-21T17:19:02;1.60;;;1.50;;
40955;SDS011;26687;48.254;11.454;2023-04-21T17:22:02;1.60;;;1.50;;
40955;SDS011;26687;48.254;11.454;2023-04-21T17:25:03;2.00;;;1.88;;
40955;SDS011;26687;48.254;11.454;2023-04-21T17:28:03;2.58;;;1.77;;
40955;SDS011;26687;48.254;11.454;2023-04-21T17:31:04;2.08;;;1.80;;
40955;SDS011;26687;48.254;11.454;2023-04-21T17:34:04;2.38;;;1.80;;
40955;SDS011;26687;48.254;11.454;2023-04-21T17:37:05;3.95;;;2.03;;